Time;durP1;ratioP1;P1;durP2;ratioP2;P2;SDS_P1;SDS_P2;PMS_P1;PMS_P2;Temp;Humidity;BMP_temperature;BMP_pressure;BME280_temperature;BME280_humidity;BME280_pressure;Samples;Min_cycle;Max_cycle;Signal;HPM_P1;HPM_P2
2021/08/01 00:01:05;;;;;;;0.40;0.30;;;16.80;99.90;;;;;;5093025;28;20484;-77
2021/08/01 00:03:31;;;;;;;0.40;0.25;;;16.80;99.90;;;;;;5092034;28;20828;-77
2021/08/01 00:05:56;;;;;;;0.40;0.30;;;16.70;99.90;;;;;;5092970;28;20378;-77
2021/08/01 00:08:23;;;;;;;0.40;0.30;;;16.70;99.90;;;;;;5092285;28;20443;-78
2021/08/01 00:10:50;;;;;;;0.40;0.30;;;16.70;99.90;;;;;;5092679;28;20662;-77
2021/08/01 00:13:15;;;;;;;0.40;0.30;;;17.00;99.90;;;;;;5091837;28;20410;-77
2021/08/01 00:15:41;;;;;;;0.40;0.20;;;17.10;99.90;;;;;;5092525;28;20768;-78
2021/08/01 00:18:07;;;;;;;0.40;0.20;;;16.80;99.90;;;;;;5093126;28;20381;-77
2021/08/01 00:20:32;;;;;;;0.40;0.20;;;16.70;99.90;;;;;;5091957;28;20389;-77
2021/08/01 00:22:58;;;;;;;0.40;0.30;;;16.90;99.90;;;;;;5074378;28;20390;-77
2021/08/01 00:25:24;;;;;;;0.40;0.30;;;16.90;99.90;;;;;;5091846;28;20378;-77
2021/08/01 00:27:49;;;;;;;0.40;0.30;;;16.80;99.90;;;;;;5092147;28;20425;-77
2021/08/01 00:30:15;;;;;;;0.40;0.30;;;16.80;99.90;;;;;;5091483;28;20440;-77
2021/08/01 00:32:43;;;;;;;0.40;0.30;;;16.80;99.90;;;;;;5092542;28;20408;-78
2021/08/01 00:35:09;;;;;;;0.40;0.30;;;16.70;99.90;;;;;;5092309;28;20378;-78
2021/08/01 00:37:35;;;;;;;0.40;0.30;;;16.80;99.90;;;;;;5091612;28;20382;-77
2021/08/01 00:40:01;;;;;;;0.40;0.30;;;16.90;99.90;;;;;;5091869;28;20432;-77
2021/08/01 00:42:26;;;;;;;0.40;0.20;;;16.80;99.90;;;;;;5091638;28;20874;-78
2021/08/01 00:44:52;;;;;;;0.40;0.30;;;16.70;99.90;;;;;;5091866;28;20386;-77
2021/08/01 00:47:18;;;;;;;0.40;0.30;;;16.80;99.90;;;;;;5091158;28;20374;-77
2021/08/01 00:49:44;;;;;;;0.40;0.25;;;16.80;99.90;;;;;;5091425;28;20390;-77
2021/08/01 00:52:11;;;;;;;0.40;0.30;;;16.80;99.90;;;;;;5091793;28;20393;-77
2021/08/01 00:54:37;;;;;;;0.40;0.30;;;16.90;99.90;;;;;;5090856;28;20410;-77
2021/08/01 00:57:04;;;;;;;0.40;0.30;;;16.70;99.90;;;;;;5091513;28;20465;-77
2021/08/01 00:59:38;;;;;;;0.40;0.20;;;16.80;99.90;;;;;;5106656;28;20841;-77
2021/08/01 01:02:17;;;;;;;0.40;0.30;;;16.90;99.90;;;;;;5091154;28;20378;-77
2021/08/01 01:05:17;;;;;;;0.40;0.30;;;16.90;99.90;;;;;;5091771;28;20401;-77
2021/08/01 01:07:56;;;;;;;0.40;0.30;;;16.80;99.90;;;;;;5073348;28;20398;-77
2021/08/01 01:10:27;;;;;;;0.40;0.20;;;16.70;99.90;;;;;;5090890;28;20750;-77
2021/08/01 01:13:01;;;;;;;0.40;0.30;;;16.90;99.90;;;;;;5091461;28;20520;-78
2021/08/01 01:15:30;;;;;;;0.40;0.20;;;16.60;99.90;;;;;;5091163;28;20385;-77
2021/08/01 01:17:59;;;;;;;0.40;0.25;;;16.70;99.90;;;;;;5091595;28;20721;-78
2021/08/01 01:20:49;;;;;;;0.40;0.30;;;16.70;99.90;;;;;;5090714;28;20760;-77
2021/08/01 01:23:29;;;;;;;0.40;0.20;;;16.50;99.90;;;;;;5091059;28;20866;-77
2021/08/01 01:26:06;;;;;;;0.40;0.20;;;16.60;99.90;;;;;;5091187;28;20747;-77
2021/08/01 01:29:00;;;;;;;0.40;0.30;;;16.60;99.90;;;;;;5090257;28;20402;-78
2021/08/01 01:31:45;;;;;;;0.40;0.30;;;16.60;99.90;;;;;;5090400;28;20386;-77
2021/08/01 01:34:18;;;;;;;0.40;0.30;;;16.70;99.90;;;;;;5091364;28;20414;-77
2021/08/01 01:36:46;;;;;;;0.40;0.20;;;16.60;99.90;;;;;;5091258;28;20378;-78
2021/08/01 01:39:13;;;;;;;0.40;0.30;;;16.40;99.90;;;;;;5091204;28;20375;-77
2021/08/01 01:41:42;;;;;;;0.40;0.30;;;16.20;99.90;;;;;;5090525;28;20378;-77
2021/08/01 01:44:09;;;;;;;0.40;0.30;;;16.10;99.90;;;;;;5090903;28;20781;-77
2021/08/01 01:46:36;;;;;;;0.40;0.20;;;16.20;99.90;;;;;;5090387;28;20382;-78
2021/08/01 01:49:04;;;;;;;0.40;0.30;;;15.90;99.90;;;;;;5091238;28;20768;-80
2021/08/01 01:51:32;;;;;;;0.40;0.30;;;16.00;99.90;;;;;;5090295;28;20382;-80
2021/08/01 01:53:59;;;;;;;0.45;0.32;;;15.90;99.90;;;;;;5090948;28;20754;-78
2021/08/01 01:56:27;;;;;;;0.40;0.30;;;15.90;99.90;;;;;;5072085;28;20382;-79
2021/08/01 01:58:54;;;;;;;0.40;0.30;;;16.00;99.90;;;;;;5090809;28;20386;-78
2021/08/01 02:01:19;;;;;;;0.40;0.30;;;16.00;99.90;;;;;;5090191;28;20473;-79
2021/08/01 02:03:45;;;;;;;0.40;0.30;;;16.00;99.90;;;;;;5090522;28;20469;-78
2021/08/01 02:06:14;;;;;;;0.40;0.28;;;15.90;99.90;;;;;;5090789;28;20412;-88
2021/08/01 02:08:53;;;;;;;0.40;0.20;;;15.90;99.90;;;;;;5072519;28;20758;-92
2021/08/01 02:11:22;;;;;;;0.40;0.20;;;15.60;99.90;;;;;;5090783;28;20366;-83
2021/08/01 02:13:55;;;;;;;0.40;0.30;;;15.60;99.90;;;;;;5094624;28;20406;-85
2021/08/01 02:16:26;;;;;;;0.40;0.30;;;15.60;99.90;;;;;;5075885;28;20992;-85
2021/08/01 02:18:56;;;;;;;0.40;0.20;;;15.40;99.90;;;;;;5110515;28;20460;-91
2021/08/01 02:21:22;;;;;;;0.40;0.30;;;15.40;99.90;;;;;;5094734;28;20386;-92
2021/08/01 02:23:51;;;;;;;0.40;0.20;;;15.40;99.90;;;;;;5077134;28;20875;-91
2021/08/01 02:26:19;;;;;;;0.40;0.30;;;15.40;99.90;;;;;;5104455;28;20410;-92
2021/08/01 02:28:46;;;;;;;0.40;0.30;;;15.60;99.90;;;;;;5104779;28;20680;-89
2021/08/01 02:31:14;;;;;;;0.40;0.30;;;15.40;99.90;;;;;;5109194;28;20381;-89
2021/08/01 02:33:41;;;;;;;0.40;0.30;;;15.50;99.90;;;;;;5110276;28;20413;-88
2021/08/01 02:36:08;;;;;;;0.40;0.30;;;15.50;99.90;;;;;;5089737;28;20781;-89
2021/08/01 02:38:35;;;;;;;0.40;0.20;;;15.50;99.90;;;;;;5117904;28;20394;-86
2021/08/01 02:41:31;;;;;;;0.40;0.30;;;15.40;99.90;;;;;;5095011;28;20489;-85
2021/08/01 02:44:00;;;;;;;0.40;0.20;;;15.50;99.90;;;;;;5092537;28;20398;-87
2021/08/01 02:46:29;;;;;;;0.40;0.30;;;15.50;99.90;;;;;;5093599;28;20430;-84
2021/08/01 02:48:58;;;;;;;0.40;0.20;;;15.50;99.90;;;;;;5094527;28;20405;-93
2021/08/01 02:51:25;;;;;;;0.40;0.20;;;15.30;99.90;;;;;;5109466;28;20423;-86
2021/08/01 02:53:54;;;;;;;0.40;0.20;;;15.30;99.90;;;;;;5093719;28;20840;-83
2021/08/01 02:56:22;;;;;;;0.40;0.20;;;15.10;99.90;;;;;;5093832;28;20382;-89
2021/08/01 02:58:50;;;;;;;0.40;0.30;;;15.90;99.90;;;;;;5075725;28;20390;-89
2021/08/01 03:01:16;;;;;;;0.40;0.30;;;15.30;99.90;;;;;;5093675;28;20476;-84
2021/08/01 03:03:43;;;;;;;0.40;0.20;;;15.10;99.90;;;;;;5093404;28;20406;-87
2021/08/01 03:06:10;;;;;;;0.40;0.30;;;15.10;99.90;;;;;;5110335;28;20394;-90
2021/08/01 03:08:36;;;;;;;0.40;0.30;;;15.10;99.90;;;;;;5078847;28;20386;-91
2021/08/01 03:11:01;;;;;;;0.40;0.30;;;15.00;99.90;;;;;;5080536;28;20389;-90
2021/08/01 03:13:27;;;;;;;0.40;0.30;;;15.10;99.90;;;;;;5094417;28;20850;-91
2021/08/01 03:15:53;;;;;;;0.40;0.20;;;15.20;99.90;;;;;;5076133;28;20998;-92
2021/08/01 03:18:19;;;;;;;0.40;0.30;;;14.90;99.90;;;;;;5076135;28;20390;-89
2021/08/01 03:20:44;;;;;;;0.40;0.30;;;14.90;99.90;;;;;;5095519;28;20413;-89
2021/08/01 03:23:10;;;;;;;0.40;0.20;;;14.90;99.90;;;;;;5111017;28;20390;-87
2021/08/01 03:25:38;;;;;;;0.40;0.30;;;14.90;99.90;;;;;;5094166;28;20388;-90
2021/08/01 03:28:04;;;;;;;0.40;0.30;;;14.80;99.90;;;;;;5094448;28;20842;-92
2021/08/01 03:30:30;;;;;;;0.40;0.30;;;14.80;99.90;;;;;;5093206;28;20415;-92
2021/08/01 03:32:56;;;;;;;0.40;0.30;;;14.90;99.90;;;;;;5075519;28;20865;-91
2021/08/01 03:35:22;;;;;;;0.40;0.30;;;14.60;99.90;;;;;;5093891;28;20385;-89
2021/08/01 03:37:48;;;;;;;0.40;0.30;;;14.60;99.90;;;;;;5093847;28;20389;-89
2021/08/01 03:40:15;;;;;;;0.40;0.30;;;14.70;99.90;;;;;;5075262;28;20386;-91
2021/08/01 03:42:41;;;;;;;0.40;0.30;;;14.60;99.90;;;;;;5074348;28;20708;-90
2021/08/01 03:45:11;;;;;;;0.40;0.20;;;14.70;99.90;;;;;;5093112;28;20421;-86
2021/08/01 03:47:37;;;;;;;0.40;0.20;;;14.80;99.90;;;;;;5092336;28;20413;-89
2021/08/01 03:50:04;;;;;;;0.40;0.30;;;14.70;99.90;;;;;;5074711;28;20523;-89
2021/08/01 03:52:29;;;;;;;0.40;0.30;;;14.60;99.90;;;;;;5107756;28;20728;-87
2021/08/01 03:54:55;;;;;;;0.40;0.30;;;14.60;99.90;;;;;;5108308;28;20416;-87
2021/08/01 03:57:21;;;;;;;0.40;0.20;;;14.70;99.90;;;;;;5092946;28;20386;-88
2021/08/01 03:59:46;;;;;;;0.40;0.20;;;14.60;99.90;;;;;;5107731;28;20823;-88
2021/08/01 04:02:15;;;;;;;0.40;0.20;;;14.40;99.90;;;;;;5074784;28;20822;-88
2021/08/01 04:04:40;;;;;;;0.40;0.20;;;14.50;99.90;;;;;;5092488;28;20386;-88
2021/08/01 04:07:06;;;;;;;0.40;0.30;;;14.40;99.90;;;;;;5074786;28;20379;-87
2021/08/01 04:09:32;;;;;;;0.40;0.30;;;14.50;99.90;;;;;;5074338;28;20465;-87
2021/08/01 04:11:58;;;;;;;0.40;0.30;;;14.70;99.90;;;;;;5092474;28;20385;-87
2021/08/01 04:14:25;;;;;;;0.40;0.30;;;14.70;99.90;;;;;;5092559;28;20414;-87
2021/08/01 04:16:51;;;;;;;0.40;0.20;;;15.10;99.90;;;;;;5092805;28;20471;-87
2021/08/01 04:19:17;;;;;;;0.40;0.30;;;14.60;99.90;;;;;;5072734;28;20400;-88
2021/08/01 04:21:44;;;;;;;0.40;0.30;;;14.60;99.90;;;;;;5071496;28;20376;-87
2021/08/01 04:24:11;;;;;;;0.40;0.20;;;14.70;99.90;;;;;;5072298;28;20379;-87
2021/08/01 04:26:37;;;;;;;0.40;0.20;;;14.50;99.90;;;;;;5071723;28;20379;-87
2021/08/01 04:29:04;;;;;;;0.40;0.30;;;14.70;99.90;;;;;;5054040;28;20768;-87
2021/08/01 04:31:30;;;;;;;0.40;0.20;;;14.50;99.90;;;;;;5053648;28;20384;-88
2021/08/01 04:33:55;;;;;;;0.40;0.30;;;14.70;99.90;;;;;;5054222;28;20433;-87
2021/08/01 04:36:21;;;;;;;0.40;0.20;;;14.50;99.90;;;;;;5070767;28;20485;-86
2021/08/01 04:38:47;;;;;;;0.40;0.20;;;14.60;99.90;;;;;;5071407;28;20437;-86
2021/08/01 04:41:12;;;;;;;0.40;0.20;;;14.50;99.90;;;;;;5054190;28;20725;-85
2021/08/01 04:43:38;;;;;;;0.40;0.20;;;14.70;99.90;;;;;;5071668;28;20742;-86
2021/08/01 04:46:04;;;;;;;0.40;0.30;;;14.50;99.90;;;;;;5072266;28;20379;-85
2021/08/01 04:48:30;;;;;;;0.40;0.20;;;14.90;99.90;;;;;;5053030;28;20396;-83
2021/08/01 04:50:55;;;;;;;0.40;0.20;;;14.70;99.90;;;;;;5054146;28;20756;-85
2021/08/01 04:53:24;;;;;;;0.40;0.30;;;14.60;99.90;;;;;;5053753;28;20422;-84
2021/08/01 04:55:50;;;;;;;0.40;0.20;;;15.00;99.90;;;;;;5053301;28;20448;-85
2021/08/01 04:58:15;;;;;;;0.40;0.23;;;14.70;99.90;;;;;;5071963;28;20384;-84
2021/08/01 05:00:41;;;;;;;0.40;0.20;;;14.70;99.90;;;;;;5053194;28;20388;-85
2021/08/01 05:03:07;;;;;;;0.40;0.30;;;14.80;99.90;;;;;;5053786;28;20419;-84
2021/08/01 05:05:37;;;;;;;0.40;0.20;;;14.70;99.90;;;;;;5053279;28;20419;-85
2021/08/01 05:08:04;;;;;;;0.40;0.30;;;14.70;99.90;;;;;;5071824;28;20383;-85
2021/08/01 05:10:30;;;;;;;0.40;0.30;;;14.60;99.90;;;;;;5071079;28;20379;-82
2021/08/01 05:12:56;;;;;;;0.40;0.30;;;14.80;99.90;;;;;;5071371;28;20376;-84
2021/08/01 05:15:22;;;;;;;0.40;0.30;;;15.00;99.90;;;;;;5074058;28;20374;-84
2021/08/01 05:17:47;;;;;;;0.40;0.30;;;14.70;99.90;;;;;;5072903;28;20401;-84
2021/08/01 05:20:13;;;;;;;0.40;0.30;;;14.70;99.90;;;;;;5091440;28;20410;-84
2021/08/01 05:22:39;;;;;;;0.40;0.30;;;14.90;99.90;;;;;;5106556;28;20469;-84
2021/08/01 05:25:06;;;;;;;0.40;0.30;;;14.60;99.90;;;;;;5091549;28;20527;-84
2021/08/01 05:27:31;;;;;;;0.40;0.20;;;14.50;99.90;;;;;;5090637;28;20402;-83
2021/08/01 05:29:57;;;;;;;0.40;0.20;;;14.60;99.90;;;;;;5091650;28;20782;-84
2021/08/01 05:32:23;;;;;;;0.40;0.30;;;14.70;99.90;;;;;;5091407;28;20527;-83
2021/08/01 05:34:48;;;;;;;0.40;0.20;;;14.90;99.90;;;;;;5072628;28;20842;-83
2021/08/01 05:37:14;;;;;;;0.40;0.20;;;14.80;99.90;;;;;;5073338;28;20386;-83
2021/08/01 05:39:40;;;;;;;0.40;0.30;;;14.80;99.90;;;;;;5091213;28;20818;-83
2021/08/01 05:42:06;;;;;;;0.40;0.20;;;14.90;99.90;;;;;;5091111;28;20386;-84
2021/08/01 05:44:34;;;;;;;0.40;0.20;;;14.90;99.90;;;;;;5072460;28;20871;-82
2021/08/01 05:47:01;;;;;;;0.40;0.30;;;14.80;99.90;;;;;;5090916;28;20374;-85
2021/08/01 05:49:26;;;;;;;0.40;0.20;;;14.80;99.90;;;;;;5091365;28;20522;-85
2021/08/01 05:51:52;;;;;;;0.40;0.30;;;14.80;99.90;;;;;;5090739;28;20466;-85
2021/08/01 05:54:17;;;;;;;0.40;0.20;;;14.80;99.90;;;;;;5072888;28;20916;-86
2021/08/01 05:56:43;;;;;;;0.40;0.20;;;14.40;99.90;;;;;;5072229;28;20390;-84
2021/08/01 05:59:09;;;;;;;0.40;0.22;;;14.90;99.90;;;;;;5106785;28;20390;-85
2021/08/01 06:01:34;;;;;;;0.40;0.30;;;14.80;99.90;;;;;;5106196;28;20393;-85
2021/08/01 06:04:00;;;;;;;0.40;0.20;;;14.80;99.90;;;;;;5106767;28;20446;-85
2021/08/01 06:06:25;;;;;;;0.40;0.30;;;14.90;99.90;;;;;;5106916;28;20382;-86
2021/08/01 06:08:52;;;;;;;0.40;0.30;;;15.00;99.90;;;;;;5090479;28;20758;-86
2021/08/01 06:11:20;;;;;;;0.40;0.20;;;14.90;99.90;;;;;;5073111;28;20435;-85
2021/08/01 06:13:45;;;;;;;0.40;0.20;;;14.90;99.90;;;;;;5090365;28;20410;-85
2021/08/01 06:16:13;;;;;;;0.40;0.30;;;15.20;99.90;;;;;;5091129;28;20454;-83
2021/08/01 06:18:40;;;;;;;0.40;0.30;;;15.10;99.90;;;;;;5072063;28;20456;-85
2021/08/01 06:21:14;;;;;;;0.40;0.20;;;15.30;99.90;;;;;;5072859;28;20386;-85
2021/08/01 06:23:42;;;;;;;0.40;0.20;;;15.20;99.90;;;;;;5090649;28;20723;-85
2021/08/01 06:26:08;;;;;;;0.40;0.30;;;15.10;99.90;;;;;;5072955;28;20520;-84
2021/08/01 06:28:34;;;;;;;0.40;0.30;;;15.00;99.90;;;;;;5090002;28;20398;-84
2021/08/01 06:31:01;;;;;;;0.40;0.20;;;15.00;99.90;;;;;;5072771;28;20468;-84
2021/08/01 06:33:28;;;;;;;0.40;0.30;;;15.00;99.90;;;;;;5090882;28;20482;-84
2021/08/01 06:35:53;;;;;;;0.40;0.30;;;15.00;99.90;;;;;;5090085;28;20473;-84
2021/08/01 06:38:19;;;;;;;0.40;0.22;;;14.80;99.90;;;;;;5090836;28;20414;-83
2021/08/01 06:40:45;;;;;;;0.40;0.20;;;15.00;99.90;;;;;;5072098;28;20386;-83
2021/08/01 06:43:10;;;;;;;0.40;0.30;;;15.10;99.90;;;;;;5090866;28;20382;-84
2021/08/01 06:45:36;;;;;;;0.40;0.30;;;15.00;99.90;;;;;;5072151;28;20758;-82
2021/08/01 06:48:01;;;;;;;0.40;0.20;;;15.00;99.90;;;;;;5090753;28;20401;-83
2021/08/01 06:50:27;;;;;;;0.40;0.20;;;15.00;99.90;;;;;;5072651;28;20385;-84
2021/08/01 06:52:53;;;;;;;0.40;0.30;;;15.10;99.90;;;;;;5071861;28;20477;-84
2021/08/01 06:55:18;;;;;;;0.40;0.30;;;15.30;99.90;;;;;;5090293;28;20374;-83
2021/08/01 06:57:44;;;;;;;0.40;0.20;;;15.00;99.90;;;;;;5090181;28;20371;-84
2021/08/01 07:00:10;;;;;;;0.40;0.30;;;15.10;99.90;;;;;;5093149;28;20382;-83
2021/08/01 07:02:36;;;;;;;0.40;0.30;;;15.00;99.90;;;;;;5075412;28;20421;-80
2021/08/01 07:05:02;;;;;;;0.40;0.20;;;15.20;99.90;;;;;;5093805;28;20418;-83
2021/08/01 07:07:27;;;;;;;0.40;0.30;;;15.20;99.90;;;;;;5093897;28;20922;-83
2021/08/01 07:09:53;;;;;;;0.40;0.20;;;15.20;99.90;;;;;;5093055;28;20464;-83
2021/08/01 07:12:19;;;;;;;0.40;0.20;;;15.00;99.90;;;;;;5093725;28;20386;-83
2021/08/01 07:14:48;;;;;;;0.40;0.20;;;15.40;99.90;;;;;;5074850;28;20417;-82
2021/08/01 07:17:13;;;;;;;0.40;0.30;;;15.10;99.90;;;;;;5075770;28;20394;-83
2021/08/01 07:19:39;;;;;;;0.40;0.30;;;15.10;99.90;;;;;;5075025;28;20409;-82
2021/08/01 07:22:05;;;;;;;0.40;0.30;;;15.50;99.90;;;;;;5093645;28;20386;-83
2021/08/01 07:24:30;;;;;;;0.40;0.20;;;15.20;99.90;;;;;;5075517;28;20386;-82
2021/08/01 07:26:56;;;;;;;0.40;0.20;;;15.40;99.90;;;;;;5075073;28;20382;-83
2021/08/01 07:29:24;;;;;;;0.40;0.30;;;15.20;99.90;;;;;;5093218;28;20432;-83
2021/08/01 07:31:50;;;;;;;0.40;0.30;;;15.20;99.90;;;;;;5093074;28;20378;-82
2021/08/01 07:34:16;;;;;;;0.40;0.30;;;15.10;99.90;;;;;;5093631;28;20410;-82
2021/08/01 07:36:42;;;;;;;0.40;0.30;;;15.20;99.90;;;;;;5092719;28;20387;-82
2021/08/01 07:39:07;;;;;;;0.40;0.20;;;15.20;99.90;;;;;;5093496;28;20385;-82
2021/08/01 07:41:33;;;;;;;0.40;0.30;;;15.30;99.90;;;;;;5093574;28;20378;-82
2021/08/01 07:43:59;;;;;;;0.40;0.20;;;15.30;99.90;;;;;;5092731;28;20499;-82
2021/08/01 07:46:24;;;;;;;0.40;0.20;;;15.50;99.90;;;;;;5093409;28;20469;-82
2021/08/01 07:48:50;;;;;;;0.40;0.30;;;15.30;99.90;;;;;;5093079;28;20808;-82
2021/08/01 07:51:15;;;;;;;0.40;0.20;;;15.40;99.90;;;;;;5093310;28;20416;-81
2021/08/01 07:53:43;;;;;;;0.40;0.20;;;15.50;99.90;;;;;;5074378;28;20407;-82
2021/08/01 07:56:09;;;;;;;0.40;0.30;;;15.50;99.90;;;;;;5074999;28;20390;-83
2021/08/01 07:58:35;;;;;;;0.40;0.30;;;15.40;99.90;;;;;;5075144;28;20758;-82
2021/08/01 08:01:00;;;;;;;0.40;0.30;;;15.40;99.90;;;;;;5092381;28;20378;-82
2021/08/01 08:03:26;;;;;;;0.40;0.30;;;15.50;99.90;;;;;;5093222;28;20388;-82
2021/08/01 08:05:52;;;;;;;0.40;0.20;;;15.70;99.90;;;;;;5092307;28;20379;-83
2021/08/01 08:08:17;;;;;;;0.40;0.30;;;15.50;99.90;;;;;;5074832;28;20381;-82
2021/08/01 08:10:43;;;;;;;0.40;0.20;;;15.60;99.90;;;;;;5073744;28;20473;-82
2021/08/01 08:13:09;;;;;;;0.40;0.30;;;15.60;99.90;;;;;;5074557;28;20435;-82
2021/08/01 08:15:34;;;;;;;0.40;0.30;;;15.90;99.90;;;;;;5074618;28;20433;-83
2021/08/01 08:18:00;;;;;;;0.40;0.30;;;15.70;99.90;;;;;;5092518;28;20390;-82
2021/08/01 08:20:26;;;;;;;0.40;0.30;;;15.70;99.90;;;;;;5074569;28;20480;-82
2021/08/01 08:22:52;;;;;;;0.40;0.30;;;15.90;99.90;;;;;;5092078;28;20505;-81
2021/08/01 08:25:17;;;;;;;0.40;0.30;;;15.80;99.90;;;;;;5092202;28;20435;-82
2021/08/01 08:27:43;;;;;;;0.40;0.30;;;16.10;99.90;;;;;;5091447;28;20402;-82
2021/08/01 08:30:09;;;;;;;0.40;0.30;;;15.80;99.90;;;;;;5108171;28;20386;-82
2021/08/01 08:32:35;;;;;;;0.40;0.30;;;15.90;99.90;;;;;;5092812;28;20439;-82
2021/08/01 08:35:03;;;;;;;0.40;0.30;;;16.10;99.90;;;;;;5091648;28;20417;-82
2021/08/01 08:37:28;;;;;;;0.40;0.30;;;16.00;99.90;;;;;;5092367;28;20370;-82
2021/08/01 08:39:54;;;;;;;0.40;0.30;;;16.20;99.90;;;;;;5107416;28;20415;-82
2021/08/01 08:42:20;;;;;;;0.40;0.30;;;16.30;99.90;;;;;;5074149;28;20382;-82
2021/08/01 08:44:46;;;;;;;0.40;0.30;;;16.40;99.90;;;;;;5091571;28;20386;-82
2021/08/01 08:47:18;;;;;;;0.40;0.20;;;16.60;99.90;;;;;;5092350;28;20377;-82
2021/08/01 08:49:49;;;;;;;0.40;0.30;;;16.60;99.90;;;;;;5091213;28;20382;-84
2021/08/01 08:52:16;;;;;;;0.40;0.20;;;16.60;99.90;;;;;;5074136;28;20398;-83
2021/08/01 08:54:49;;;;;;;0.40;0.30;;;16.80;99.90;;;;;;5091922;28;20459;-83
2021/08/01 08:57:22;;;;;;;0.40;0.30;;;16.90;99.90;;;;;;5073763;28;20390;-84
2021/08/01 08:59:53;;;;;;;0.40;0.30;;;16.90;99.90;;;;;;5091326;28;20393;-84
2021/08/01 09:02:19;;;;;;;0.40;0.30;;;16.50;99.90;;;;;;5092076;28;20374;-82
2021/08/01 09:04:44;;;;;;;0.40;0.20;;;16.80;99.90;;;;;;5073094;28;20397;-82
2021/08/01 09:07:10;;;;;;;0.40;0.30;;;16.80;99.90;;;;;;5091853;28;20411;-83
2021/08/01 09:09:36;;;;;;;0.40;0.30;;;16.80;99.90;;;;;;5091511;28;20378;-80
2021/08/01 09:12:02;;;;;;;0.40;0.30;;;17.10;99.90;;;;;;5091079;28;20457;-81
2021/08/01 09:14:27;;;;;;;0.40;0.30;;;17.10;99.90;;;;;;5091708;28;20413;-81
2021/08/01 09:16:53;;;;;;;0.40;0.20;;;17.30;99.90;;;;;;5090939;28;20382;-82
2021/08/01 09:19:30;;;;;;;0.40;0.30;;;17.10;99.90;;;;;;5091355;28;20404;-81
2021/08/01 09:22:18;;;;;;;0.40;0.30;;;17.30;99.90;;;;;;5090318;28;20735;-81
2021/08/01 09:24:46;;;;;;;0.40;0.30;;;17.30;99.90;;;;;;5091270;28;20388;-79
2021/08/01 09:27:33;;;;;;;0.40;0.30;;;17.20;99.90;;;;;;5090949;28;20905;-81
2021/08/01 09:29:59;;;;;;;0.40;0.20;;;17.30;99.90;;;;;;5072684;28;20416;-81
2021/08/01 09:32:26;;;;;;;0.40;0.20;;;17.50;99.90;;;;;;5091540;28;20427;-81
2021/08/01 09:34:52;;;;;;;0.40;0.30;;;17.40;99.90;;;;;;5072619;28;20484;-80
2021/08/01 09:37:32;;;;;;;0.40;0.30;;;17.50;99.90;;;;;;5091160;28;20410;-81
2021/08/01 09:40:28;;;;;;;0.40;0.30;;;17.60;99.90;;;;;;5090690;28;20381;-79
2021/08/01 09:43:04;;;;;;;0.40;0.30;;;17.60;99.90;;;;;;5088442;28;20968;-80
2021/08/01 09:45:29;;;;;;;0.40;0.30;;;17.60;99.90;;;;;;5090894;28;20370;-79
2021/08/01 09:48:17;;;;;;;0.40;0.20;;;17.90;99.90;;;;;;5072515;28;20421;-79
2021/08/01 09:51:07;;;;;;;0.40;0.30;;;17.70;99.90;;;;;;5091166;28;20735;-80
2021/08/01 09:53:34;;;;;;;0.40;0.30;;;17.90;99.90;;;;;;5091526;28;20499;-79
2021/08/01 09:56:17;;;;;;;0.40;0.30;;;18.20;99.90;;;;;;5072304;28;20892;-79
2021/08/01 09:58:44;;;;;;;0.40;0.30;;;18.20;99.90;;;;;;5090927;28;20833;-80
2021/08/01 10:01:10;;;;;;;0.40;0.30;;;18.50;99.90;;;;;;5090297;28;20420;-82
2021/08/01 10:03:43;;;;;;;0.40;0.30;;;18.60;99.90;;;;;;5091325;28;20389;-80
2021/08/01 10:06:14;;;;;;;0.40;0.20;;;17.90;99.90;;;;;;5090437;28;20382;-79
2021/08/01 10:08:52;;;;;;;0.40;0.30;;;18.10;99.90;;;;;;5073107;28;20826;-78
2021/08/01 10:11:18;;;;;;;0.40;0.30;;;18.40;99.90;;;;;;5090996;28;20374;-78
2021/08/01 10:13:47;;;;;;;0.40;0.30;;;18.70;99.90;;;;;;5090944;28;20401;-78
2021/08/01 10:16:13;;;;;;;0.40;0.30;;;18.60;99.90;;;;;;5072772;28;20386;-78
2021/08/01 10:18:40;;;;;;;0.40;0.20;;;18.60;99.90;;;;;;5090898;28;20514;-80
2021/08/01 10:21:07;;;;;;;0.40;0.30;;;18.60;99.90;;;;;;5090043;28;20851;-78
2021/08/01 10:23:43;;;;;;;0.40;0.30;;;18.80;99.90;;;;;;5090958;28;20488;-77
2021/08/01 10:26:10;;;;;;;0.40;0.25;;;18.90;99.90;;;;;;5090027;28;20742;-77
2021/08/01 10:28:41;;;;;;;0.40;0.20;;;18.80;99.90;;;;;;5090575;28;20464;-77
2021/08/01 10:31:10;;;;;;;0.40;0.20;;;19.00;99.90;;;;;;5090226;28;20489;-79
2021/08/01 10:33:51;;;;;;;0.40;0.20;;;19.00;99.90;;;;;;5092804;28;20401;-76
2021/08/01 10:36:24;;;;;;;0.40;0.20;;;19.20;99.90;;;;;;5076887;28;20734;-78
2021/08/01 10:38:52;;;;;;;0.40;0.20;;;19.30;99.90;;;;;;5094064;28;20386;-77
2021/08/01 10:41:20;;;;;;;0.40;0.20;;;19.10;99.90;;;;;;5094634;28;20378;-78
2021/08/01 10:43:48;;;;;;;0.40;0.20;;;19.40;99.90;;;;;;5094693;28;20735;-80
2021/08/01 10:46:19;;;;;;;0.40;0.23;;;19.60;99.90;;;;;;5094179;28;20475;-79
2021/08/01 10:48:45;;;;;;;0.40;0.20;;;19.40;99.90;;;;;;5094668;28;20398;-79
2021/08/01 10:51:11;;;;;;;0.40;0.30;;;19.40;99.90;;;;;;5093777;28;20393;-79
2021/08/01 10:53:37;;;;;;;0.40;0.20;;;19.20;99.90;;;;;;5094247;28;20406;-77
2021/08/01 10:56:05;;;;;;;0.40;0.30;;;19.20;99.90;;;;;;5093793;28;20722;-76
2021/08/01 10:58:37;;;;;;;0.40;0.30;;;19.00;99.90;;;;;;5094667;28;20893;-79
2021/08/01 11:01:07;;;;;;;0.40;0.20;;;19.10;99.90;;;;;;5093779;28;20378;-77
2021/08/01 11:03:35;;;;;;;0.40;0.20;;;18.70;99.90;;;;;;5094289;28;20432;-77
2021/08/01 11:06:01;;;;;;;0.40;0.30;;;19.20;99.90;;;;;;5093268;28;20930;-79
2021/08/01 11:08:27;;;;;;;0.40;0.30;;;18.80;99.90;;;;;;5094249;28;20378;-78
2021/08/01 11:11:19;;;;;;;0.40;0.20;;;18.70;99.90;;;;;;5075442;28;20460;-77
2021/08/01 11:13:49;;;;;;;0.40;0.30;;;19.00;99.90;;;;;;5072693;28;20417;-80
2021/08/01 11:16:36;;;;;;;0.40;0.30;;;18.50;99.90;;;;;;5093287;28;20431;-78
2021/08/01 11:19:32;;;;;;;0.40;0.30;;;18.50;99.90;;;;;;5075476;28;20402;-78
2021/08/01 11:21:57;;;;;;;0.40;0.30;;;18.40;99.90;;;;;;5093203;28;20382;-78
2021/08/01 11:24:23;;;;;;;0.40;0.30;;;17.80;99.90;;;;;;5093839;28;20389;-75
2021/08/01 11:27:12;;;;;;;0.40;0.20;;;17.00;99.90;;;;;;5093748;28;20734;-81
2021/08/01 11:30:05;;;;;;;0.40;0.30;;;16.10;99.90;;;;;;5081133;28;20398;-85
2021/08/01 11:32:50;;;;;;;0.40;0.30;;;15.50;99.90;;;;;;5072187;28;20520;-79
2021/08/01 11:35:17;;;;;;;0.40;0.20;;;15.10;99.90;;;;;;5093115;28;20409;-85
2021/08/01 11:37:43;;;;;;;0.40;0.30;;;15.30;99.90;;;;;;5093705;28;20369;-85
2021/08/01 11:40:09;;;;;;;0.40;0.30;;;15.20;99.90;;;;;;5093147;28;20390;-84
2021/08/01 11:42:35;;;;;;;0.40;0.20;;;15.00;99.90;;;;;;5075860;28;20434;-76
2021/08/01 11:45:02;;;;;;;0.40;0.30;;;15.10;99.90;;;;;;5092195;28;20885;-79
2021/08/01 11:47:39;;;;;;;0.40;0.30;;;14.90;99.90;;;;;;5093215;28;20385;-81
2021/08/01 11:50:06;;;;;;;0.40;0.28;;;14.90;99.90;;;;;;5074659;28;20897;-81
2021/08/01 11:52:44;;;;;;;0.40;0.20;;;15.00;99.90;;;;;;5075058;28;20382;-81
2021/08/01 11:55:18;;;;;;;0.40;0.30;;;15.10;99.90;;;;;;5074470;28;20755;-81
2021/08/01 11:57:49;;;;;;;0.40;0.20;;;14.90;99.90;;;;;;5093262;28;20471;-81
2021/08/01 12:00:23;;;;;;;0.40;0.30;;;15.00;99.90;;;;;;5092371;28;20381;-81
2021/08/01 12:02:53;;;;;;;0.40;0.30;;;15.10;99.90;;;;;;5074969;28;20519;-81
2021/08/01 12:05:19;;;;;;;0.40;0.30;;;15.10;99.90;;;;;;5092829;28;20443;-82
2021/08/01 12:07:47;;;;;;;0.40;0.22;;;15.20;99.90;;;;;;5092956;28;20378;-82
2021/08/01 12:10:25;;;;;;;0.40;0.30;;;15.20;99.90;;;;;;5092260;28;20381;-82
2021/08/01 12:12:53;;;;;;;0.40;0.30;;;15.20;99.90;;;;;;5092936;28;20389;-80
2021/08/01 12:15:22;;;;;;;0.40;0.30;;;15.10;99.90;;;;;;5092673;28;20405;-80
2021/08/01 12:17:48;;;;;;;0.40;0.30;;;15.20;99.90;;;;;;5092807;28;20385;-81
2021/08/01 12:20:13;;;;;;;0.40;0.20;;;15.30;99.90;;;;;;5092112;28;20382;-81
2021/08/01 12:22:44;;;;;;;0.40;0.20;;;15.30;99.90;;;;;;5108339;28;20476;-81
2021/08/01 12:25:13;;;;;;;0.40;0.30;;;15.30;99.90;;;;;;5092123;28;20374;-81
2021/08/01 12:27:38;;;;;;;0.40;0.30;;;15.30;99.90;;;;;;5092366;28;20390;-80
2021/08/01 12:30:04;;;;;;;0.40;0.30;;;15.60;99.90;;;;;;5092057;28;20424;-81
2021/08/01 12:32:46;;;;;;;0.40;0.30;;;15.40;99.90;;;;;;5108137;28;20386;-81
2021/08/01 12:35:20;;;;;;;0.40;0.30;;;15.50;99.90;;;;;;5091792;28;20402;-81
2021/08/01 12:38:00;;;;;;;0.40;0.30;;;15.50;99.90;;;;;;5092356;28;20440;-81
2021/08/01 12:40:43;;;;;;;0.40;0.30;;;15.70;99.90;;;;;;5092630;28;20421;-82
2021/08/01 12:43:23;;;;;;;0.40;0.20;;;15.90;99.90;;;;;;5091742;28;20386;-83
2021/08/01 12:45:49;;;;;;;0.40;0.30;;;15.90;99.90;;;;;;5092410;28;20386;-82
2021/08/01 12:48:22;;;;;;;0.40;0.30;;;16.10;99.90;;;;;;5091389;28;20386;-82
2021/08/01 12:50:50;;;;;;;0.40;0.30;;;16.20;99.90;;;;;;5092256;28;20379;-83
2021/08/01 12:53:19;;;;;;;0.40;0.30;;;16.40;99.90;;;;;;5073223;28;20767;-83
2021/08/01 12:55:54;;;;;;;0.40;0.20;;;16.70;99.90;;;;;;5091782;28;20386;-82